Time;durP1;ratioP1;P1;durP2;ratioP2;P2;SDS_P1;SDS_P2;PMS_P1;PMS_P2;Temp;Humidity;BMP_temperature;BMP_pressure;BME280_temperature;BME280_humidity;BME280_pressure;Samples;Min_cycle;Max_cycle;Signal;HPM_P1;HPM_P2
2022/07/18 00:00:10;;;;;;;2.30;2.10;;;;;;;15.74;59.22;94744.47;5052030;28;20225;-56
2022/07/18 00:02:54;;;;;;;3.73;1.90;;;;;;;15.60;59.47;94740.75;5049327;28;20646;-56
2022/07/18 00:05:38;;;;;;;2.30;2.07;;;;;;;15.66;60.02;94737.59;5045364;28;20240;-56
2022/07/18 00:08:22;;;;;;;2.87;2.17;;;;;;;15.68;59.80;94746.19;5047017;28;20193;-56
2022/07/18 00:11:06;;;;;;;3.67;2.30;;;;;;;15.49;60.42;94749.84;5051382;28;20693;-56
2022/07/18 00:13:51;;;;;;;3.40;1.70;;;;;;;15.36;60.96;94748.34;5044974;28;20686;-56
2022/07/18 00:16:35;;;;;;;2.83;2.00;;;;;;;15.26;60.91;94739.16;5045221;28;20306;-56
2022/07/18 00:19:18;;;;;;;4.50;2.23;;;;;;;15.15;61.42;94739.84;5051695;28;20255;-56
2022/07/18 00:22:04;;;;;;;2.97;1.80;;;;;;;15.09;61.61;94747.16;5050030;28;20855;-56
2022/07/18 00:24:48;;;;;;;3.63;1.90;;;;;;;15.03;61.58;94744.66;5048688;28;20197;-56
2022/07/18 00:27:32;;;;;;;4.60;2.00;;;;;;;14.91;62.19;94741.00;5051077;28;20201;-56
2022/07/18 00:30:16;;;;;;;4.60;2.30;;;;;;;14.59;63.48;94736.69;5051326;28;20202;-56
2022/07/18 00:33:00;;;;;;;2.27;1.87;;;;;;;14.55;64.03;94742.81;5048554;28;20205;-56
2022/07/18 00:35:44;;;;;;;1.87;1.77;;;;;;;14.71;63.36;94731.91;5050532;28;20267;-56
2022/07/18 00:38:27;;;;;;;3.90;1.87;;;;;;;14.82;62.66;94742.53;5045811;28;20201;-56
2022/07/18 00:41:16;;;;;;;2.23;1.90;;;;;;;14.68;63.65;94741.56;5040153;28;20209;-56
2022/07/18 00:43:59;;;;;;;4.20;2.13;;;;;;;14.85;63.12;94735.69;5043936;28;20654;-56
2022/07/18 00:46:43;;;;;;;2.60;1.90;;;;;;;14.88;62.60;94736.56;5050668;28;20231;-56
2022/07/18 00:49:28;;;;;;;2.70;1.67;;;;;;;14.70;63.27;94741.69;5050695;28;20580;-56
2022/07/18 00:52:13;;;;;;;5.60;1.83;;;;;;;14.72;63.02;94732.63;5042860;28;20610;-56
2022/07/18 00:54:58;;;;;;;7.03;2.13;;;;;;;14.75;63.09;94726.53;5048207;28;20225;-56
2022/07/18 00:57:42;;;;;;;2.40;2.20;;;;;;;14.78;63.06;94724.59;5049982;28;20586;-56
2022/07/18 01:03:29;;;;;;;2.57;2.07;;;;;;;14.69;63.46;94725.41;5043003;28;20213;-56
2022/07/18 01:06:13;;;;;;;4.53;2.10;;;;;;;14.67;63.71;94728.81;5046057;28;20206;-56
2022/07/18 01:08:58;;;;;;;3.20;2.37;;;;;;;14.50;64.21;94724.09;5049443;28;20205;-56
2022/07/18 01:11:44;;;;;;;1.83;1.73;;;;;;;14.49;64.19;94721.91;5045725;28;20213;-56
2022/07/18 01:14:29;;;;;;;1.93;1.83;;;;;;;14.51;64.53;94719.22;5043347;28;20305;-56
2022/07/18 01:17:19;;;;;;;6.03;2.20;;;;;;;14.43;65.66;94718.66;5055992;28;20229;-56
2022/07/18 01:20:05;;;;;;;4.27;2.47;;;;;;;14.53;65.62;94720.09;5047694;28;20197;-56
2022/07/18 01:22:48;;;;;;;3.00;2.37;;;;;;;14.60;65.09;94712.81;5048680;28;20263;-56
2022/07/18 01:25:32;;;;;;;2.73;2.30;;;;;;;14.57;64.95;94723.19;5045387;28;20252;-56
2022/07/18 01:28:16;;;;;;;3.30;2.63;;;;;;;14.73;64.76;94723.59;5050902;28;20209;-56
2022/07/18 01:31:01;;;;;;;5.27;2.30;;;;;;;14.73;65.08;94717.94;5041741;28;20252;-56
2022/07/18 01:33:45;;;;;;;2.77;2.50;;;;;;;14.54;65.55;94723.66;5050624;28;20217;-56
2022/07/18 01:36:29;;;;;;;2.73;2.37;;;;;;;14.49;65.65;94722.66;5046360;28;20510;-56
2022/07/18 01:39:13;;;;;;;4.20;2.37;;;;;;;14.47;65.42;94725.31;5046969;28;20683;-56
2022/07/18 01:41:58;;;;;;;2.80;2.13;;;;;;;14.40;65.87;94731.13;5046174;28;20217;-56
2022/07/18 01:44:43;;;;;;;5.10;2.20;;;;;;;14.36;65.73;94730.81;5044643;28;20205;-56
2022/07/18 01:47:27;;;;;;;4.20;2.40;;;;;;;14.33;65.82;94732.00;5047567;28;20193;-56
2022/07/18 01:50:12;;;;;;;3.63;2.43;;;;;;;14.28;65.74;94730.25;5048219;28;20264;-56
2022/07/18 01:52:57;;;;;;;3.40;2.17;;;;;;;14.24;65.92;94724.34;5048212;28;20194;-56
2022/07/18 01:55:41;;;;;;;2.67;2.30;;;;;;;14.21;66.60;94736.78;5051664;28;20295;-56
2022/07/18 01:58:25;;;;;;;2.90;2.63;;;;;;;14.16;66.57;94733.69;5053737;28;20790;-56
2022/07/18 02:01:09;;;;;;;2.83;2.50;;;;;;;14.15;66.71;94735.03;5047284;28;20674;-56
2022/07/18 02:03:53;;;;;;;3.67;2.83;;;;;;;14.15;66.42;94731.47;5053935;28;20725;-56
2022/07/18 02:06:37;;;;;;;3.47;2.70;;;;;;;14.13;66.07;94737.69;5053292;28;20725;-56
2022/07/18 02:09:21;;;;;;;2.50;2.30;;;;;;;14.06;66.76;94735.81;5049160;28;20208;-56
2022/07/18 02:12:05;;;;;;;2.87;2.57;;;;;;;13.92;67.51;94726.31;5067414;28;20233;-56
2022/07/18 02:14:49;;;;;;;2.80;2.50;;;;;;;13.93;67.90;94727.81;5048961;28;20571;-56
2022/07/18 02:17:35;;;;;;;2.63;2.30;;;;;;;13.94;68.36;94726.47;5050180;28;20229;-56
2022/07/18 02:20:19;;;;;;;3.27;2.97;;;;;;;13.91;69.49;94722.03;5065025;28;20239;-56
2022/07/18 02:23:03;;;;;;;3.07;2.37;;;;;;;13.89;69.99;94727.50;5050550;28;20209;-56
2022/07/18 02:25:47;;;;;;;3.00;2.70;;;;;;;13.57;71.36;94728.75;5047842;28;20229;-56
2022/07/18 02:28:32;;;;;;;2.83;2.50;;;;;;;13.71;70.13;94726.94;5052893;28;20302;-56
2022/07/18 02:31:16;;;;;;;3.63;2.77;;;;;;;13.72;70.61;94722.03;5054827;28;20197;-56
2022/07/18 02:34:00;;;;;;;3.17;2.87;;;;;;;13.89;70.73;94721.88;5051130;28;20274;-56
2022/07/18 02:36:44;;;;;;;3.23;2.93;;;;;;;13.82;70.86;94719.22;5054709;28;20272;-56
2022/07/18 02:39:28;;;;;;;2.97;2.67;;;;;;;13.88;71.11;94717.59;5046884;28;20307;-56
2022/07/18 02:42:12;;;;;;;4.03;3.20;;;;;;;13.82;71.48;94713.59;5047612;28;20213;-56
2022/07/18 02:44:56;;;;;;;8.03;3.10;;;;;;;13.84;71.49;94708.84;5047223;28;20209;-56
2022/07/18 02:47:40;;;;;;;3.90;2.93;;;;;;;13.80;70.90;94714.19;5053043;28;20702;-56
2022/07/18 02:50:25;;;;;;;3.93;3.27;;;;;;;13.72;71.53;94711.53;5052551;28;20201;-56
2022/07/18 02:53:08;;;;;;;4.37;3.50;;;;;;;13.77;72.58;94710.47;5052363;28;20234;-56
2022/07/18 02:55:52;;;;;;;4.37;3.73;;;;;;;13.85;73.70;94712.41;5051336;28;20311;-56
2022/07/18 02:58:36;;;;;;;6.60;3.60;;;;;;;13.91;74.15;94716.38;5046937;28;20710;-56
2022/07/18 03:01:20;;;;;;;4.73;3.20;;;;;;;13.99;72.61;94711.34;5052658;28;20213;-56
2022/07/18 03:04:04;;;;;;;4.93;3.03;;;;;;;13.92;72.01;94717.88;5052589;28;20221;-56
2022/07/18 03:06:49;;;;;;;5.67;2.80;;;;;;;13.90;71.92;94711.34;5051470;28;20579;-56
2022/07/18 03:09:33;;;;;;;3.33;3.00;;;;;;;13.77;72.51;94718.94;5058539;28;20714;-56
2022/07/18 03:12:17;;;;;;;3.30;3.00;;;;;;;13.72;72.86;94716.41;5050146;28;20193;-56
2022/07/18 03:15:02;;;;;;;3.87;3.20;;;;;;;13.57;73.61;94722.38;5043496;28;20256;-56
2022/07/18 03:17:46;;;;;;;3.57;3.27;;;;;;;13.56;73.98;94716.00;5052818;28;20226;-56
2022/07/18 03:20:31;;;;;;;4.37;2.97;;;;;;;13.47;73.42;94721.59;5051429;28;20241;-56
2022/07/18 03:23:15;;;;;;;4.67;3.80;;;;;;;13.63;73.42;94726.38;5050651;28;20204;-56
2022/07/18 03:25:59;;;;;;;6.77;3.83;;;;;;;13.78;74.33;94731.69;5054416;28;20678;-56
2022/07/18 03:28:43;;;;;;;4.00;3.60;;;;;;;13.86;73.82;94736.41;5052253;28;20205;-56
2022/07/18 03:31:27;;;;;;;5.03;3.50;;;;;;;13.89;72.94;94743.66;5049697;28;20239;-56
2022/07/18 03:34:11;;;;;;;5.23;3.77;;;;;;;13.87;72.12;94744.28;5052303;28;20201;-56
2022/07/18 03:36:55;;;;;;;7.43;2.90;;;;;;;13.81;70.92;94741.03;5052654;28;20208;-56
2022/07/18 03:39:39;;;;;;;3.57;2.93;;;;;;;13.61;71.11;94750.81;5048392;28;20244;-56
2022/07/18 03:42:23;;;;;;;6.93;3.50;;;;;;;13.38;71.57;94744.88;5048412;28;20194;-56
2022/07/18 03:45:08;;;;;;;6.83;2.67;;;;;;;13.46;71.45;94740.56;5045929;28;20209;-56
2022/07/18 03:47:52;;;;;;;6.93;3.27;;;;;;;13.49;70.75;94744.28;5052236;28;20252;-56
2022/07/18 03:50:36;;;;;;;4.67;3.07;;;;;;;13.49;70.74;94744.28;5044939;28;20240;-56
2022/07/18 03:53:20;;;;;;;3.77;3.10;;;;;;;13.55;70.63;94747.56;5048041;28;20225;-56
2022/07/18 03:56:05;;;;;;;3.03;2.73;;;;;;;13.64;70.12;94744.00;5049698;28;20646;-56
2022/07/18 03:58:49;;;;;;;5.53;3.13;;;;;;;13.82;69.67;94736.88;5047776;28;20221;-56
2022/07/18 04:01:33;;;;;;;7.30;2.90;;;;;;;13.93;69.13;94741.91;5047066;28;20280;-56
2022/07/18 04:04:17;;;;;;;2.93;2.63;;;;;;;13.94;68.93;94737.75;5059339;28;20768;-56
2022/07/18 04:07:01;;;;;;;3.97;3.33;;;;;;;14.45;67.57;94738.53;5048662;28;20252;-56
2022/07/18 04:09:45;;;;;;;5.37;2.87;;;;;;;16.09;62.14;94741.06;5048076;28;20224;-56
2022/07/18 04:12:30;;;;;;;3.13;2.83;;;;;;;17.23;58.18;94752.41;5051146;28;20266;-56
2022/07/18 04:15:15;;;;;;;3.73;2.57;;;;;;;18.38;55.01;94749.09;5049738;28;20205;-56
2022/07/18 04:17:59;;;;;;;4.10;2.67;;;;;;;19.49;51.00;94743.75;5050976;28;20232;-56
2022/07/18 04:20:43;;;;;;;5.77;2.50;;;;;;;20.56;48.62;94751.88;5055976;28;20267;-56
2022/07/18 04:23:27;;;;;;;3.10;2.30;;;;;;;20.97;46.71;94739.53;5046097;28;20197;-56
2022/07/18 04:26:11;;;;;;;2.60;2.20;;;;;;;20.30;48.37;94736.38;5050133;28;20221;-56
2022/07/18 04:28:56;;;;;;;3.77;2.10;;;;;;;22.14;44.23;94741.81;5041099;28;20224;-56
2022/07/18 04:31:40;;;;;;;3.70;2.50;;;;;;;22.04;43.63;94749.94;5045465;28;20193;-56
2022/07/18 04:34:24;;;;;;;6.17;2.47;;;;;;;21.44;45.44;94753.03;5049029;28;20232;-56
2022/07/18 04:37:09;;;;;;;4.17;2.40;;;;;;;20.66;47.23;94748.78;5050415;28;20257;-56
2022/07/18 04:39:53;;;;;;;4.90;2.30;;;;;;;19.67;49.97;94741.09;5047869;28;20259;-56
2022/07/18 04:42:38;;;;;;;2.87;2.10;;;;;;;19.57;50.73;94749.81;5048736;28;20204;-56
2022/07/18 04:45:23;;;;;;;5.67;2.73;;;;;;;19.17;52.19;94730.66;5045035;28;20581;-55
2022/07/18 04:48:07;;;;;;;5.13;2.40;;;;;;;19.18;52.59;94738.56;5051340;28;20209;-56
2022/07/18 04:50:51;;;;;;;3.13;2.53;;;;;;;19.11;52.62;94747.38;5050216;28;20686;-56
2022/07/18 04:53:35;;;;;;;4.00;2.27;;;;;;;19.24;52.37;94740.97;5049054;28;20204;-56
2022/07/18 04:56:19;;;;;;;4.17;2.83;;;;;;;19.08;53.12;94737.28;5050134;28;20697;-56
2022/07/18 04:59:03;;;;;;;3.57;2.70;;;;;;;18.96;53.63;94743.78;5052750;28;20999;-55
2022/07/18 05:01:47;;;;;;;3.27;2.67;;;;;;;18.96;54.16;94740.94;5050280;28;20222;-55
2022/07/18 05:04:31;;;;;;;3.00;2.60;;;;;;;19.36;53.05;94748.03;5050277;28;20294;-56
2022/07/18 05:07:15;;;;;;;3.43;2.20;;;;;;;19.60;52.21;94744.97;5054766;28;20219;-56
2022/07/18 05:09:58;;;;;;;3.83;3.00;;;;;;;19.79;51.73;94759.50;5049066;28;20751;-56
2022/07/18 05:12:45;;;;;;;5.10;2.43;;;;;;;19.93;51.20;94755.88;5045336;28;20233;-56
2022/07/18 05:15:29;;;;;;;3.00;2.70;;;;;;;20.10;50.92;94752.47;5043168;28;20197;-56
2022/07/18 05:18:13;;;;;;;3.07;2.87;;;;;;;20.13;51.46;94754.03;5041444;28;20566;-56
2022/07/18 05:20:57;;;;;;;3.37;3.07;;;;;;;20.17;52.02;94745.69;5048631;28;20205;-56
2022/07/18 05:23:41;;;;;;;5.07;2.60;;;;;;;20.25;52.69;94746.06;5046515;28;20264;-56
2022/07/18 05:26:25;;;;;;;5.17;2.73;;;;;;;20.34;52.57;94741.53;5048396;28;20270;-56
2022/07/18 05:29:10;;;;;;;8.53;2.43;;;;;;;20.53;52.48;94747.47;5046775;28;20580;-56
2022/07/18 05:31:54;;;;;;;4.00;2.27;;;;;;;20.76;51.57;94745.66;5044809;28;20759;-56
2022/07/18 05:34:39;;;;;;;3.90;2.63;;;;;;;20.87;50.97;94744.75;5047120;28;20268;-56
2022/07/18 05:37:23;;;;;;;3.53;2.07;;;;;;;21.03;51.61;94745.50;5050006;28;20302;-55
2022/07/18 05:40:09;;;;;;;4.47;2.10;;;;;;;21.30;49.97;94742.47;5053236;28;20205;-56
2022/07/18 05:42:54;;;;;;;3.37;2.17;;;;;;;21.44;49.76;94747.31;5044901;28;20799;-56
2022/07/18 05:45:38;;;;;;;4.00;2.17;;;;;;;21.48;51.82;94744.66;5049405;28;20261;-56
2022/07/18 05:48:22;;;;;;;2.27;2.03;;;;;;;21.63;49.91;94747.47;5050772;28;20341;-56
2022/07/18 05:51:07;;;;;;;2.20;2.00;;;;;;;21.86;49.48;94746.28;5053751;28;20208;-56
2022/07/18 05:53:51;;;;;;;3.53;2.27;;;;;;;22.02;48.10;94743.44;5048633;28;20210;-56
2022/07/18 05:56:35;;;;;;;2.70;2.30;;;;;;;22.10;48.19;94753.03;5051760;28;20218;-56
2022/07/18 05:59:20;;;;;;;2.37;2.17;;;;;;;22.22;48.67;94747.09;5053701;28;20185;-56
2022/07/18 06:02:04;;;;;;;7.97;2.13;;;;;;;22.04;49.44;94752.78;5051624;28;20484;-56
2022/07/18 06:04:48;;;;;;;2.83;2.33;;;;;;;22.42;47.61;94752.91;5048326;28;20244;-55
2022/07/18 06:07:32;;;;;;;3.17;2.33;;;;;;;22.45;48.52;94757.31;5046332;28;20223;-55
2022/07/18 06:10:16;;;;;;;2.83;2.13;;;;;;;22.59;47.15;94752.16;5045530;28;20220;-56
2022/07/18 06:13:00;;;;;;;2.65;2.08;;;;;;;22.84;46.70;94748.13;5033972;28;20241;-56
2022/07/18 06:15:44;;;;;;;4.40;2.40;;;;;;;23.01;45.32;94747.38;5047432;28;20818;-56
2022/07/18 06:18:27;;;;;;;2.33;2.13;;;;;;;23.25;44.64;94750.41;5048116;28;20205;-56
2022/07/18 06:21:11;;;;;;;13.50;2.50;;;;;;;23.43;44.56;94745.38;5049027;28;20698;-55
2022/07/18 06:23:55;;;;;;;3.63;1.98;;;;;;;23.56;45.36;94737.97;5040874;28;20205;-55
2022/07/18 06:26:39;;;;;;;3.70;1.73;;;;;;;23.74;44.90;94739.34;5049333;28;20237;-55
2022/07/18 06:29:23;;;;;;;2.42;2.20;;;;;;;23.67;44.23;94739.81;5047510;28;20205;-55
2022/07/18 06:32:07;;;;;;;2.80;2.35;;;;;;;23.94;44.05;94744.31;5044294;28;20205;-55
2022/07/18 06:34:51;;;;;;;3.08;2.30;;;;;;;24.03;44.08;94734.59;5049005;28;20213;-56
2022/07/18 06:37:35;;;;;;;3.17;2.10;;;;;;;24.24;43.98;94742.50;5048141;28;20256;-55
2022/07/18 06:40:19;;;;;;;2.15;1.95;;;;;;;24.30;43.37;94728.38;5048873;28;20205;-55
2022/07/18 06:43:04;;;;;;;2.33;1.80;;;;;;;24.42;42.15;94739.50;5045191;28;20253;-55
2022/07/18 06:45:50;;;;;;;2.40;2.03;;;;;;;24.59;42.21;94738.63;5049538;28;20575;-55
2022/07/18 06:48:35;;;;;;;4.80;2.40;;;;;;;24.70;42.01;94748.25;5046114;28;20263;-55
2022/07/18 06:51:19;;;;;;;3.42;2.53;;;;;;;24.85;42.37;94732.97;5047053;28;20706;-55
2022/07/18 06:54:03;;;;;;;3.65;1.85;;;;;;;24.93;41.30;94741.84;5050128;28;20268;-55
2022/07/18 06:56:47;;;;;;;2.88;2.20;;;;;;;24.98;41.43;94740.56;5047576;28;20359;-55
2022/07/18 06:59:31;;;;;;;3.97;1.80;;;;;;;25.03;40.79;94742.16;5047376;28;20224;-56
2022/07/18 07:02:16;;;;;;;4.55;2.10;;;;;;;25.12;41.66;94743.84;5042001;28;20213;-55
2022/07/18 07:05:00;;;;;;;2.35;2.10;;;;;;;25.28;39.67;94744.34;5049321;28;20248;-55
2022/07/18 07:07:45;;;;;;;2.75;1.90;;;;;;;25.22;39.43;94747.03;5049236;28;20197;-55
2022/07/18 07:10:29;;;;;;;3.08;2.00;;;;;;;25.49;39.87;94756.41;5045312;28;20202;-55
2022/07/18 07:13:13;;;;;;;3.38;2.17;;;;;;;25.70;38.78;94753.44;5046923;28;20209;-55
2022/07/18 07:15:57;;;;;;;2.95;1.95;;;;;;;25.89;38.55;94757.56;5045775;28;20301;-55
2022/07/18 07:18:41;;;;;;;2.40;1.63;;;;;;;25.72;36.95;94750.63;5048634;28;20511;-55
2022/07/18 07:21:25;;;;;;;2.22;1.70;;;;;;;25.51;34.05;94754.31;5047371;28;20201;-55
2022/07/18 07:24:09;;;;;;;1.40;1.25;;;;;;;25.66;36.75;94755.47;5046101;28;20271;-55
2022/07/18 07:26:53;;;;;;;1.85;1.40;;;;;;;26.02;36.00;94755.72;5046022;28;20201;-55
2022/07/18 07:29:37;;;;;;;1.50;1.40;;;;;;;26.37;33.73;94763.13;5048840;28;20292;-55
2022/07/18 07:32:21;;;;;;;1.58;1.48;;;;;;;26.57;34.51;94775.13;5041433;28;20197;-55
2022/07/18 07:35:06;;;;;;;3.15;1.45;;;;;;;26.79;33.78;94772.78;5046701;28;20289;-55
2022/07/18 07:37:53;;;;;;;1.67;1.52;;;;;;;26.91;33.71;94772.38;5049408;28;20229;-55
2022/07/18 07:40:37;;;;;;;1.50;1.40;;;;;;;27.04;33.30;94779.88;5042530;28;20253;-55
2022/07/18 07:43:23;;;;;;;1.33;1.00;;;;;;;27.21;32.39;94775.97;5045881;28;20255;-55
2022/07/18 07:46:07;;;;;;;1.70;1.40;;;;;;;27.34;32.86;94771.19;5046116;28;20376;-55
2022/07/18 07:48:51;;;;;;;1.95;1.63;;;;;;;27.43;32.82;94781.44;5046177;28;20308;-55
2022/07/18 07:51:35;;;;;;;5.78;1.70;;;;;;;27.51;32.34;94775.91;5042554;28;20233;-55
2022/07/18 07:54:19;;;;;;;1.55;1.30;;;;;;;27.46;30.74;94776.47;5042165;28;20197;-55
2022/07/18 07:57:03;;;;;;;6.07;1.60;;;;;;;27.79;31.61;94767.09;5049089;28;20229;-55
2022/07/18 07:59:47;;;;;;;3.53;1.73;;;;;;;27.68;30.78;94769.06;5046502;28;20201;-55
2022/07/18 08:02:32;;;;;;;3.10;1.42;;;;;;;27.25;30.71;94769.53;5041780;28;20261;-55
2022/07/18 08:05:16;;;;;;;3.20;1.40;;;;;;;27.76;31.05;94777.13;5045661;28;20201;-55
2022/07/18 08:08:01;;;;;;;1.88;1.10;;;;;;;26.98;29.59;94771.81;5049559;28;20201;-55
2022/07/18 08:10:47;;;;;;;1.77;1.25;;;;;;;26.70;29.12;94768.28;5047227;28;20722;-55
2022/07/18 08:13:31;;;;;;;2.55;1.50;;;;;;;26.89;29.07;94764.44;5045437;28;20794;-55
2022/07/18 08:16:15;;;;;;;1.92;1.20;;;;;;;27.19;30.79;94763.66;5048688;28;20279;-55
2022/07/18 08:18:59;;;;;;;1.98;1.38;;;;;;;27.27;27.18;94766.72;5046569;28;20202;-55
2022/07/18 08:21:43;;;;;;;2.78;1.30;;;;;;;27.04;29.59;94767.63;5045935;28;20253;-55
2022/07/18 08:24:27;;;;;;;1.67;1.20;;;;;;;27.35;28.79;94761.13;5043011;28;20710;-55
2022/07/18 08:27:11;;;;;;;2.53;1.10;;;;;;;27.67;29.37;94767.59;5045692;28;20224;-55
2022/07/18 08:29:55;;;;;;;1.20;1.10;;;;;;;27.72;25.81;94769.13;5045924;28;20209;-55
2022/07/18 08:32:39;;;;;;;3.40;0.90;;;;;;;27.44;24.00;94776.44;5043822;28;20236;-55
2022/07/18 08:35:23;;;;;;;2.55;0.80;;;;;;;27.33;24.49;94761.09;5048296;28;20197;-55
2022/07/18 08:38:07;;;;;;;1.33;1.20;;;;;;;27.46;26.54;94764.97;5046701;28;20317;-55
2022/07/18 08:40:53;;;;;;;2.78;1.00;;;;;;;27.62;23.60;94766.06;5041564;28;20964;-55
2022/07/18 08:43:38;;;;;;;3.65;1.00;;;;;;;28.04;24.30;94765.41;5043531;28;20205;-55
2022/07/18 08:46:22;;;;;;;1.58;1.00;;;;;;;27.99;23.30;94763.88;5044064;28;20221;-55
2022/07/18 08:49:07;;;;;;;1.27;1.17;;;;;;;28.45;25.95;94764.75;5046044;28;20200;-55
2022/07/18 08:51:51;;;;;;;2.03;1.08;;;;;;;28.87;26.74;94761.16;5048972;28;20225;-55
2022/07/18 08:54:35;;;;;;;1.73;1.25;;;;;;;29.09;26.17;94761.47;5049910;28;20202;-55
2022/07/18 08:57:20;;;;;;;1.92;1.23;;;;;;;29.06;25.42;94760.00;5050472;28;20329;-55
2022/07/18 09:00:09;;;;;;;1.85;1.13;;;;;;;28.96;23.02;94756.94;5048472;28;20687;-55
2022/07/18 09:02:58;;;;;;;0.90;0.90;;;;;;;28.82;25.65;94762.50;5041166;28;20348;-55
2022/07/18 09:05:42;;;;;;;2.45;1.13;;;;;;;28.76;24.59;94751.56;5045758;28;20762;-55
2022/07/18 09:08:26;;;;;;;1.95;1.10;;;;;;;28.82;24.00;94748.09;5045327;28;21009;-55
2022/07/18 09:11:11;;;;;;;4.30;1.33;;;;;;;29.10;25.11;94757.16;5043624;28;20217;-55
2022/07/18 09:13:55;;;;;;;1.58;1.10;;;;;;;29.28;24.77;94745.88;5047024;28;20277;-55
2022/07/18 09:16:39;;;;;;;1.52;1.20;;;;;;;29.07;24.16;94755.66;5045495;28;20275;-55
2022/07/18 09:19:23;;;;;;;3.45;1.48;;;;;;;29.32;24.46;94756.72;5046804;28;20740;-55
2022/07/18 09:22:15;;;;;;;1.67;1.20;;;;;;;29.65;26.03;94757.91;5042737;28;20286;-55
2022/07/18 09:25:10;;;;;;;1.67;1.20;;;;;;;29.83;25.53;94749.47;5044761;28;20620;-55
2022/07/18 09:27:54;;;;;;;3.00;1.25;;;;;;;29.70;24.84;94750.75;5043951;28;20667;-55
2022/07/18 09:30:38;;;;;;;3.88;1.10;;;;;;;29.60;23.06;94762.19;5044259;28;20201;-55
2022/07/18 09:33:22;;;;;;;2.05;1.10;;;;;;;29.17;24.52;94747.16;5047286;28;20243;-55
2022/07/18 09:36:06;;;;;;;3.95;1.10;;;;;;;29.69;24.48;94752.19;5042702;28;20283;-55
2022/07/18 09:38:51;;;;;;;1.75;1.27;;;;;;;29.01;24.76;94734.66;5043632;28;20701;-55
2022/07/18 09:41:35;;;;;;;3.28;1.33;;;;;;;29.55;23.74;94749.13;5045467;28;20575;-55
2022/07/18 09:44:20;;;;;;;1.08;0.98;;;;;;;29.93;22.44;94752.50;5045656;28;20565;-55
2022/07/18 09:47:04;;;;;;;1.33;0.85;;;;;;;29.46;24.02;94754.06;5046979;28;20209;-55
2022/07/18 09:49:49;;;;;;;2.60;1.20;;;;;;;29.57;23.77;94746.25;5046318;28;20256;-55
2022/07/18 09:52:33;;;;;;;1.00;0.88;;;;;;;29.60;22.46;94751.38;5041224;28;20247;-55
2022/07/18 09:55:17;;;;;;;1.25;0.98;;;;;;;29.70;23.41;94754.38;5044126;28;20627;-55
2022/07/18 09:58:06;;;;;;;1.10;0.88;;;;;;;29.68;24.32;94750.75;5049568;28;20321;-55
2022/07/18 10:00:51;;;;;;;1.23;1.10;;;;;;;30.08;23.37;94751.22;5047957;28;20225;-55
2022/07/18 10:03:36;;;;;;;1.27;1.17;;;;;;;29.67;22.66;94752.16;5043861;28;20221;-55
2022/07/18 10:06:21;;;;;;;1.50;0.95;;;;;;;30.02;23.67;94747.53;5042978;28;20194;-55
2022/07/18 10:09:06;;;;;;;6.47;1.40;;;;;;;30.03;23.96;94758.41;5046896;28;20206;-55
2022/07/18 10:11:50;;;;;;;1.73;1.23;;;;;;;29.87;23.45;94752.41;5038274;28;20208;-55
2022/07/18 10:14:34;;;;;;;6.28;1.17;;;;;;;29.88;24.93;94745.19;5048254;28;20236;-55
2022/07/18 10:17:20;;;;;;;2.35;1.40;;;;;;;29.66;23.86;94753.59;5044246;28;20256;-55
2022/07/18 10:20:06;;;;;;;2.03;1.10;;;;;;;29.93;23.23;94752.50;5040395;28;20205;-55
2022/07/18 10:22:54;;;;;;;3.03;1.05;;;;;;;30.32;23.23;94741.34;5046930;28;20628;-55
2022/07/18 10:25:38;;;;;;;1.30;1.20;;;;;;;30.46;23.18;94744.38;5052678;28;20247;-55
2022/07/18 10:28:22;;;;;;;2.13;1.17;;;;;;;30.24;23.87;94738.38;5053749;28;20194;-55
2022/07/18 10:31:16;;;;;;;2.15;1.15;;;;;;;30.77;22.44;94731.63;5046841;28;20237;-55
2022/07/18 10:34:07;;;;;;;1.20;1.10;;;;;;;30.51;24.37;94742.97;5052500;28;20197;-55
2022/07/18 10:36:51;;;;;;;2.50;1.20;;;;;;;30.51;23.27;94749.50;5050221;28;20257;-55
2022/07/18 10:39:37;;;;;;;2.25;1.52;;;;;;;30.31;23.02;94748.53;5043897;28;20710;-55
2022/07/18 10:42:24;;;;;;;2.75;1.27;;;;;;;30.22;23.23;94741.25;5044544;28;20341;-55
2022/07/18 10:45:43;;;;;;;1.15;0.85;;;;;;;30.55;23.37;94746.63;5046797;28;20201;-55
2022/07/18 10:48:34;;;;;;;1.45;1.10;;;;;;;29.97;22.81;94743.88;5048525;28;20737;-55
2022/07/18 10:51:19;;;;;;;1.30;1.10;;;;;;;30.03;23.54;94743.22;5050493;28;20745;-55
2022/07/18 10:54:06;;;;;;;1.00;0.90;;;;;;;30.81;22.99;94740.34;5051209;28;20240;-55
2022/07/18 10:56:53;;;;;;;1.63;1.10;;;;;;;31.18;21.87;94731.94;5053090;28;20229;-55
2022/07/18 10:59:57;;;;;;;1.58;1.10;;;;;;;31.32;22.59;94732.03;5051650;28;20206;-55
2022/07/18 11:02:44;;;;;;;1.40;1.13;;;;;;;30.43;21.90;94726.25;5034312;28;20770;-55
2022/07/18 11:05:29;;;;;;;1.75;0.77;;;;;;;30.51;22.39;94737.19;5052150;28;20762;-55
2022/07/18 11:08:13;;;;;;;3.15;1.10;;;;;;;30.30;21.29;94730.50;5052890;28;20701;-55
2022/07/18 11:11:01;;;;;;;1.63;0.88;;;;;;;30.34;21.23;94727.63;5045937;28;20210;-55
2022/07/18 11:13:49;;;;;;;1.33;0.93;;;;;;;30.98;21.96;94723.09;5047985;28;20269;-55
2022/07/18 11:16:35;;;;;;;1.08;0.98;;;;;;;31.08;20.89;94723.19;5045198;28;20229;-55
2022/07/18 11:19:20;;;;;;;4.03;1.10;;;;;;;31.54;21.73;94722.72;5052367;28;20586;-55
2022/07/18 11:22:04;;;;;;;0.80;0.80;;;;;;;31.77;20.60;94732.25;5049422;28;20715;-55
2022/07/18 11:24:49;;;;;;;5.28;1.00;;;;;;;31.85;21.70;94726.50;5048547;28;20236;-55
2022/07/18 11:27:33;;;;;;;2.83;1.00;;;;;;;32.16;21.55;94722.22;5049481;28;20287;-55
2022/07/18 11:30:19;;;;;;;1.48;1.00;;;;;;;32.23;21.46;94717.16;5052269;28;20193;-55
2022/07/18 11:33:04;;;;;;;0.93;0.80;;;;;;;31.70;19.92;94714.84;5045683;28;20206;-55
2022/07/18 11:35:48;;;;;;;2.10;0.90;;;;;;;31.35;20.68;94704.53;5051079;28;20192;-55
2022/07/18 11:38:35;;;;;;;2.92;1.17;;;;;;;31.31;20.87;94701.59;5051232;28;20206;-55
2022/07/18 11:41:20;;;;;;;3.10;0.98;;;;;;;31.80;20.86;94707.63;5048960;28;20201;-55
2022/07/18 11:44:04;;;;;;;2.78;0.73;;;;;;;31.95;21.74;94706.22;5044144;28;20714;-55
2022/07/18 11:46:48;;;;;;;2.80;1.08;;;;;;;32.17;20.63;94702.66;5052091;28;20205;-55
2022/07/18 11:49:33;;;;;;;2.42;0.95;;;;;;;32.42;19.95;94707.78;5039498;28;20249;-55
2022/07/18 11:52:18;;;;;;;1.88;0.80;;;;;;;32.64;19.99;94706.34;5046455;28;20274;-55
2022/07/18 11:55:03;;;;;;;0.75;0.75;;;;;;;32.87;20.99;94710.72;5045010;28;20270;-55
2022/07/18 11:57:48;;;;;;;1.30;1.02;;;;;;;32.35;20.87;94705.59;5048071;28;20217;-55
2022/07/18 12:00:32;;;;;;;4.38;0.90;;;;;;;32.54;20.59;94704.16;5048693;28;20213;-55
2022/07/18 12:03:19;;;;;;;0.80;0.80;;;;;;;31.96;20.61;94698.97;5048599;28;20742;-55
2022/07/18 12:06:21;;;;;;;2.20;1.00;;;;;;;32.38;19.62;94701.97;5048907;28;20422;-55
2022/07/18 12:09:06;;;;;;;0.93;0.90;;;;;;;32.46;20.92;94699.09;5053370;28;20205;-55
2022/07/18 12:11:50;;;;;;;1.20;0.80;;;;;;;32.89;19.72;94699.09;5048289;28;20202;-55
2022/07/18 12:14:34;;;;;;;0.70;0.70;;;;;;;32.59;21.13;94693.28;5041874;28;20706;-55
2022/07/18 12:17:18;;;;;;;1.92;1.17;;;;;;;32.59;19.82;94696.88;5039839;28;20245;-55
2022/07/18 12:20:20;;;;;;;3.30;0.90;;;;;;;32.43;18.98;94688.91;5048296;28;20245;-55
2022/07/18 12:23:11;;;;;;;0.80;0.80;;;;;;;32.36;20.37;94689.63;5049041;28;20197;-55
2022/07/18 12:25:57;;;;;;;1.70;1.20;;;;;;;32.74;19.82;94689.66;5034217;28;20210;-55
2022/07/18 12:28:41;;;;;;;1.30;1.00;;;;;;;33.20;20.26;94691.81;5041904;28;20236;-55
2022/07/18 12:31:45;;;;;;;1.17;0.93;;;;;;;33.45;19.85;94683.00;5048598;28;20243;-55
2022/07/18 12:34:29;;;;;;;4.03;1.00;;;;;;;33.58;18.82;94679.31;5048494;28;20235;-52
2022/07/18 12:37:23;;;;;;;1.00;0.90;;;;;;;33.24;20.59;94676.53;5045620;28;20750;-52
2022/07/18 12:40:10;;;;;;;1.25;0.90;;;;;;;33.61;20.12;94677.13;5040321;28;20233;-52
2022/07/18 12:43:07;;;;;;;1.27;0.90;;;;;;;33.63;19.69;94674.22;5045827;28;20232;-52
2022/07/18 12:45:51;;;;;;;1.00;0.90;;;;;;;33.69;19.72;94674.19;5045141;28;20205;-53
2022/07/18 12:48:37;;;;;;;2.20;1.05;;;;;;;32.56;20.67;94668.59;5046479;28;20509;-52
2022/07/18 12:51:30;;;;;;;1.48;1.10;;;;;;;32.57;19.66;94667.88;5047182;28;20251;-53
2022/07/18 12:54:14;;;;;;;2.03;0.95;;;;;;;33.11;20.40;94663.47;5027966;28;20268;-53
2022/07/18 12:56:58;;;;;;;1.63;0.85;;;;;;;33.45;20.59;94668.47;5045764;28;20280;-52
2022/07/18 12:59:42;;;;;;;2.42;0.98;;;;;;;33.21;20.04;94661.28;5048768;28;20277;-52